sensor_id;sensor_type;location;lat;lon;timestamp;P1;durP1;ratioP1;P2;durP2;ratioP2
71955;SDS011;59829;50.562;6.258;2022-11-20T00:07:10;1.08;;;0.20;;
71955;SDS011;59829;50.562;6.258;2022-11-20T00:17:11;0.40;;;0.20;;
71955;SDS011;59829;50.562;6.258;2022-11-20T00:27:11;0.32;;;0.10;;
71955;SDS011;59829;50.562;6.258;2022-11-20T00:37:11;0.52;;;0.20;;
71955;SDS011;59829;50.562;6.258;2022-11-20T00:47:11;0.60;;;0.13;;
71955;SDS011;59829;50.562;6.258;2022-11-20T00:57:12;0.93;;;0.30;;
71955;SDS011;59829;50.562;6.258;2022-11-20T01:07:12;0.22;;;0.13;;
71955;SDS011;59829;50.562;6.258;2022-11-20T01:17:12;0.90;;;0.30;;
71955;SDS011;59829;50.562;6.258;2022-11-20T01:27:13;0.82;;;0.40;;
71955;SDS011;59829;50.562;6.258;2022-11-20T01:37:13;0.52;;;0.30;;
71955;SDS011;59829;50.562;6.258;2022-11-20T01:47:14;0.50;;;0.10;;
71955;SDS011;59829;50.562;6.258;2022-11-20T01:57:17;0.32;;;0.17;;
71955;SDS011;59829;50.562;6.258;2022-11-20T02:07:19;0.33;;;0.20;;
71955;SDS011;59829;50.562;6.258;2022-11-20T02:17:20;1.63;;;0.70;;
71955;SDS011;59829;50.562;6.258;2022-11-20T02:27:21;0.75;;;0.40;;
71955;SDS011;59829;50.562;6.258;2022-11-20T02:37:22;1.10;;;0.40;;
71955;SDS011;59829;50.562;6.258;2022-11-20T02:47:26;1.35;;;0.60;;
71955;SDS011;59829;50.562;6.258;2022-11-20T02:57:27;0.93;;;0.45;;
71955;SDS011;59829;50.562;6.258;2022-11-20T03:07:27;1.08;;;0.50;;
71955;SDS011;59829;50.562;6.258;2022-11-20T03:17:28;0.20;;;0.10;;
71955;SDS011;59829;50.562;6.258;2022-11-20T03:27:33;0.52;;;0.30;;
71955;SDS011;59829;50.562;6.258;2022-11-20T03:37:34;0.30;;;0.10;;
71955;SDS011;59829;50.562;6.258;2022-11-20T03:47:34;0.50;;;0.30;;
71955;SDS011;59829;50.562;6.258;2022-11-20T03:57:35;0.50;;;0.30;;
71955;SDS011;59829;50.562;6.258;2022-11-20T04:07:35;0.20;;;0.10;;
71955;SDS011;59829;50.562;6.258;2022-11-20T04:17:38;0.55;;;0.25;;
71955;SDS011;59829;50.562;6.258;2022-11-20T04:27:38;0.73;;;0.30;;
71955;SDS011;59829;50.562;6.258;2022-11-20T04:37:38;0.93;;;0.50;;
71955;SDS011;59829;50.562;6.258;2022-11-20T04:47:39;0.68;;;0.40;;
71955;SDS011;59829;50.562;6.258;2022-11-20T04:57:39;1.05;;;0.57;;
71955;SDS011;59829;50.562;6.258;2022-11-20T05:07:39;0.98;;;0.50;;
71955;SDS011;59829;50.562;6.258;2022-11-20T05:17:40;0.98;;;0.60;;
71955;SDS011;59829;50.562;6.258;2022-11-20T05:27:40;1.92;;;0.82;;
71955;SDS011;59829;50.562;6.258;2022-11-20T05:37:40;1.15;;;0.80;;
71955;SDS011;59829;50.562;6.258;2022-11-20T05:47:41;0.90;;;0.63;;
71955;SDS011;59829;50.562;6.258;2022-11-20T05:57:41;1.52;;;0.80;;
71955;SDS011;59829;50.562;6.258;2022-11-20T06:07:41;1.15;;;0.50;;
71955;SDS011;59829;50.562;6.258;2022-11-20T06:17:42;1.63;;;0.70;;
71955;SDS011;59829;50.562;6.258;2022-11-20T06:27:42;1.88;;;1.02;;
71955;SDS011;59829;50.562;6.258;2022-11-20T06:37:42;1.05;;;0.40;;
71955;SDS011;59829;50.562;6.258;2022-11-20T06:47:42;1.40;;;0.60;;
71955;SDS011;59829;50.562;6.258;2022-11-20T06:57:43;0.82;;;0.60;;
71955;SDS011;59829;50.562;6.258;2022-11-20T07:07:43;0.30;;;0.20;;
71955;SDS011;59829;50.562;6.258;2022-11-20T07:17:43;1.33;;;0.60;;
71955;SDS011;59829;50.562;6.258;2022-11-20T07:27:44;2.92;;;0.93;;
71955;SDS011;59829;50.562;6.258;2022-11-20T07:37:44;3.65;;;1.42;;
71955;SDS011;59829;50.562;6.258;2022-11-20T07:47:45;3.00;;;1.42;;
71955;SDS011;59829;50.562;6.258;2022-11-20T07:57:46;3.75;;;1.60;;
71955;SDS011;59829;50.562;6.258;2022-11-20T08:07:54;4.13;;;1.60;;
71955;SDS011;59829;50.562;6.258;2022-11-20T08:28:24;3.20;;;1.63;;
71955;SDS011;59829;50.562;6.258;2022-11-20T08:38:24;2.55;;;1.20;;
71955;SDS011;59829;50.562;6.258;2022-11-20T08:48:25;2.33;;;1.10;;
71955;SDS011;59829;50.562;6.258;2022-11-20T08:58:25;3.10;;;1.55;;
71955;SDS011;59829;50.562;6.258;2022-11-20T09:08:26;6.53;;;2.47;;
71955;SDS011;59829;50.562;6.258;2022-11-20T09:18:27;5.60;;;2.40;;
71955;SDS011;59829;50.562;6.258;2022-11-20T09:28:29;4.57;;;2.28;;
71955;SDS011;59829;50.562;6.258;2022-11-20T09:58:48;1.98;;;0.75;;
71955;SDS011;59829;50.562;6.258;2022-11-20T10:08:55;3.13;;;1.45;;
71955;SDS011;59829;50.562;6.258;2022-11-20T10:19:18;7.70;;;2.40;;
71955;SDS011;59829;50.562;6.258;2022-11-20T10:29:32;4.68;;;2.00;;
71955;SDS011;59829;50.562;6.258;2022-11-20T10:39:41;3.88;;;1.48;;
71955;SDS011;59829;50.562;6.258;2022-11-20T10:49:51;3.15;;;1.40;;
71955;SDS011;59829;50.562;6.258;2022-11-20T10:59:59;3.53;;;1.30;;
71955;SDS011;59829;50.562;6.258;2022-11-20T11:20:15;2.42;;;1.10;;
71955;SDS011;59829;50.562;6.258;2022-11-20T11:30:17;2.47;;;1.08;;
71955;SDS011;59829;50.562;6.258;2022-11-20T11:40:20;3.03;;;1.10;;
71955;SDS011;59829;50.562;6.258;2022-11-20T11:50:22;3.00;;;1.60;;
71955;SDS011;59829;50.562;6.258;2022-11-20T12:00:24;2.23;;;1.03;;
71955;SDS011;59829;50.562;6.258;2022-11-20T12:10:37;1.85;;;0.88;;
71955;SDS011;59829;50.562;6.258;2022-11-20T12:30:47;1.52;;;0.63;;
71955;SDS011;59829;50.562;6.258;2022-11-20T12:41:02;1.70;;;0.90;;
71955;SDS011;59829;50.562;6.258;2022-11-20T12:51:25;2.28;;;0.80;;
71955;SDS011;59829;50.562;6.258;2022-11-20T13:01:56;2.13;;;0.70;;
71955;SDS011;59829;50.562;6.258;2022-11-20T13:12:40;1.60;;;0.60;;
71955;SDS011;59829;50.562;6.258;2022-11-20T13:22:47;1.02;;;0.50;;
71955;SDS011;59829;50.562;6.258;2022-11-20T13:32:49;1.40;;;0.65;;
71955;SDS011;59829;50.562;6.258;2022-11-20T13:43:04;1.35;;;0.50;;
71955;SDS011;59829;50.562;6.258;2022-11-20T13:54:15;1.88;;;0.73;;
71955;SDS011;59829;50.562;6.258;2022-11-20T14:03:52;1.00;;;0.50;;
71955;SDS011;59829;50.562;6.258;2022-11-20T14:24:09;0.40;;;0.20;;
71955;SDS011;59829;50.562;6.258;2022-11-20T14:34:15;0.45;;;0.35;;
71955;SDS011;59829;50.562;6.258;2022-11-20T14:44:27;0.93;;;0.52;;
71955;SDS011;59829;50.562;6.258;2022-11-20T14:54:30;0.73;;;0.40;;
71955;SDS011;59829;50.562;6.258;2022-11-20T15:04:31;1.13;;;0.40;;
71955;SDS011;59829;50.562;6.258;2022-11-20T15:14:31;1.02;;;0.60;;
71955;SDS011;59829;50.562;6.258;2022-11-20T15:34:35;2.42;;;0.88;;
71955;SDS011;59829;50.562;6.258;2022-11-20T15:44:35;1.17;;;0.60;;
71955;SDS011;59829;50.562;6.258;2022-11-20T15:54:35;1.15;;;0.60;;
71955;SDS011;59829;50.562;6.258;2022-11-20T16:04:36;1.25;;;0.45;;
71955;SDS011;59829;50.562;6.258;2022-11-20T16:14:36;2.17;;;0.50;;
71955;SDS011;59829;50.562;6.258;2022-11-20T16:24:54;0.88;;;0.40;;
71955;SDS011;59829;50.562;6.258;2022-11-20T16:34:55;0.57;;;0.30;;
71955;SDS011;59829;50.562;6.258;2022-11-20T16:44:55;1.00;;;0.60;;
71955;SDS011;59829;50.562;6.258;2022-11-20T16:54:56;1.13;;;0.35;;
71955;SDS011;59829;50.562;6.258;2022-11-20T17:04:56;0.43;;;0.20;;
71955;SDS011;59829;50.562;6.258;2022-11-20T17:14:56;0.50;;;0.30;;
71955;SDS011;59829;50.562;6.258;2022-11-20T17:24:57;0.85;;;0.40;;
71955;SDS011;59829;50.562;6.258;2022-11-20T17:34:57;0.90;;;0.60;;
71955;SDS011;59829;50.562;6.258;2022-11-20T17:44:57;2.55;;;0.90;;
71955;SDS011;59829;50.562;6.258;2022-11-20T17:54:58;4.82;;;1.35;;
71955;SDS011;59829;50.562;6.258;2022-11-20T18:04:58;3.75;;;1.25;;
71955;SDS011;59829;50.562;6.258;2022-11-20T18:14:58;4.93;;;1.80;;
71955;SDS011;59829;50.562;6.258;2022-11-20T18:24:59;5.57;;;1.77;;
71955;SDS011;59829;50.562;6.258;2022-11-20T18:34:59;2.85;;;1.42;;
71955;SDS011;59829;50.562;6.258;2022-11-20T18:44:59;3.53;;;1.50;;
71955;SDS011;59829;50.562;6.258;2022-11-20T18:55:01;4.18;;;1.52;;
71955;SDS011;59829;50.562;6.258;2022-11-20T19:05:03;5.30;;;1.75;;
71955;SDS011;59829;50.562;6.258;2022-11-20T19:15:04;5.33;;;2.20;;
71955;SDS011;59829;50.562;6.258;2022-11-20T19:25:04;4.53;;;1.60;;
71955;SDS011;59829;50.562;6.258;2022-11-20T19:35:05;2.55;;;0.93;;
71955;SDS011;59829;50.562;6.258;2022-11-20T19:45:06;2.58;;;0.73;;
71955;SDS011;59829;50.562;6.258;2022-11-20T19:55:07;2.75;;;0.50;;
71955;SDS011;59829;50.562;6.258;2022-11-20T20:05:08;2.72;;;0.50;;
71955;SDS011;59829;50.562;6.258;2022-11-20T20:15:09;2.35;;;0.63;;
71955;SDS011;59829;50.562;6.258;2022-11-20T20:25:09;3.13;;;0.82;;
71955;SDS011;59829;50.562;6.258;2022-11-20T20:35:09;2.15;;;0.70;;
71955;SDS011;59829;50.562;6.258;2022-11-20T20:45:10;2.35;;;0.73;;
71955;SDS011;59829;50.562;6.258;2022-11-20T20:55:10;3.47;;;0.82;;
71955;SDS011;59829;50.562;6.258;2022-11-20T21:05:10;4.18;;;1.30;;
71955;SDS011;59829;50.562;6.258;2022-11-20T21:15:11;4.15;;;1.33;;
71955;SDS011;59829;50.562;6.258;2022-11-20T21:25:11;4.97;;;1.77;;
71955;SDS011;59829;50.562;6.258;2022-11-20T21:35:11;6.88;;;2.20;;
71955;SDS011;59829;50.562;6.258;2022-11-20T21:45:12;9.98;;;2.70;;
71955;SDS011;59829;50.562;6.258;2022-11-20T21:55:12;6.65;;;2.58;;
71955;SDS011;59829;50.562;6.258;2022-11-20T22:05:12;7.25;;;2.63;;
71955;SDS011;59829;50.562;6.258;2022-11-20T22:15:13;8.30;;;2.80;;
71955;SDS011;59829;50.562;6.258;2022-11-20T22:25:13;6.15;;;2.22;;
71955;SDS011;59829;50.562;6.258;2022-11-20T22:35:13;9.10;;;1.63;;
71955;SDS011;59829;50.562;6.258;2022-11-20T22:45:14;5.30;;;1.88;;
71955;SDS011;59829;50.562;6.258;2022-11-20T22:55:14;6.63;;;2.35;;
71955;SDS011;59829;50.562;6.258;2022-11-20T23:05:15;7.07;;;2.10;;
71955;SDS011;59829;50.562;6.258;2022-11-20T23:15:15;8.65;;;2.25;;
71955;SDS011;59829;50.562;6.258;2022-11-20T23:25:15;5.85;;;2.08;;
71955;SDS011;59829;50.562;6.258;2022-11-20T23:35:15;6.50;;;2.50;;
71955;SDS011;59829;50.562;6.258;2022-11-20T23:45:16;9.68;;;2.63;;
71955;SDS011;59829;50.562;6.258;2022-11-20T23:55:16;9.60;;;2.97;;
